TimeCST,TemperatureF,Dew PointF,Humidity,Sea Level PressureIn,VisibilityMPH,Wind Direction,Wind SpeedMPH,Gust SpeedMPH,PrecipitationIn,Events,Conditions,WindDirDegrees,DateUTC
6:00 AM,74,70,84,29.87,9,WSW,5.8,,,,Haze,250,2013-10-19 12:00:00
6:00 AM,73.4,69.8,88,29.85,-9999.0,WSW,5.8,-,N/A,,Clear,250,2013-10-19 12:00:00
7:00 AM,78.8,71.6,78,29.87,-9999.0,SW,5.8,-,N/A,,Clear,230,2013-10-19 13:00:00
8:00 AM,86.0,73.4,66,29.89,-9999.0,West,1.2,-,N/A,,Clear,260,2013-10-19 14:00:00
9:00 AM,84,73,63,29.91,9,ENE,4.6,,,,Haze,70,2013-10-19 15:00:00
9:00 AM,84.2,73.4,70,29.89,6.2,ENE,4.6,-,N/A,,Mostly Cloudy,70,2013-10-19 15:00:00
10:00 AM,86.0,73.4,66,29.90,6.2,ENE,6.9,-,N/A,,Mostly Cloudy,60,2013-10-19 16:00:00
11:00 AM,86.0,75.2,70,29.88,6.2,NE,9.2,-,N/A,,Mostly Cloudy,50,2013-10-19 17:00:00
12:00 PM,87,74,59,29.87,9,NE,8.1,,,,Haze,50,2013-10-19 18:00:00
12:00 PM,86.0,75.2,70,29.86,6.2,NE,8.1,-,N/A,,Mostly Cloudy,50,2013-10-19 18:00:00
1:00 PM,86.0,75.2,70,29.82,6.2,NE,9.2,-,N/A,,Scattered Clouds,40,2013-10-19 19:00:00
2:00 PM,84.2,75.2,74,29.80,6.2,NNE,5.8,-,N/A,,Mostly Cloudy,20,2013-10-19 20:00:00
3:00 PM,85,75,65,29.81,9,North,1.2,,,,Overcast,10,2013-10-19 21:00:00
3:00 PM,86.0,75.2,70,29.79,6.2,North,3.5,-,N/A,,Mostly Cloudy,10,2013-10-19 21:00:00
4:00 PM,84.2,75.2,74,29.80,6.2,ENE,3.5,-,N/A,,Scattered Clouds,70,2013-10-19 22:00:00
5:00 PM,84.2,75.2,74,29.82,6.2,ENE,6.9,-,N/A,,Mostly Cloudy,70,2013-10-19 23:00:00
5:31 PM,-9999,-9999,N/A,-9999,6.2,NE,10.4,-,N/A,Rain-Thunderstorm,Thunderstorms and Rain,50,2013-10-19 23:31:00
5:56 PM,82.4,75.2,79,29.85,6.2,NNE,9.2,-,N/A,Rain-Thunderstorm,Thunderstorms and Rain,30,2013-10-19 23:56:00
6:00 PM,83,74,69,29.86,8,NNE,9.2,,,Rain-Thunderstorm,Thunderstorms and Rain,30,2013-10-20 00:00:00
6:00 PM,82.4,75.2,79,29.85,6.2,NNE,9.2,-,N/A,Rain-Thunderstorm,Thunderstorms and Rain,30,2013-10-20 00:00:00